Decoded Metar for LFOP (ROUEN in FRANCE) (IATA:URO) | Meteo·Mobile Aviation Weather
aviador You're here:

LFOP Decoded Metar

ROUEN in FRANCE
Report Time2018-08-21 16:00:00
UTC Time2018-08-21 16:06:52
Flight Rules vfr VFR
WindVRB at 04 kt
Visibility9999 m
Phenomena:N/A
Clouds:Few 026 Hf
Overcast 049 Hf
Expected CloudBase > 2,400 ft AGL from Temp-Dew spread
Ceiling4,900 ft
Temp23°C (ISA +9)
Dew Point17°C (69% RH)
QNH1020 hPa
Density Alt1,588 ft
Elevation515 ft
Report Wrong Elevation
Raw Report
METAR LFOP 211600Z AUTO VRB04KT 9999 FEW026 OVC049 23/17 Q1020
NOSIG=

Extra information for LFOP:More info

Metar Taf Metar & Taf Last 4 Metars F.Rules Stats Wind Profile Meteogram Temp Stats Airport Information Weather charts Add Link Nearby VenuesMetar ALERT Operation Metar Decoded Social comments